PWSweather.com
Personal Weather Stations
Station Observations
K7AZM
Phoenix, AZ 85050

Phoenix, AZ 85050

Lat: 33.662, Lon: -112.019

Elevation: 1500

Station Type: Davis Vantage Vue

http://www.silhanek.com/weather

High Low Average
Temperature 71.0°F21.7°C 43.5°F6.4°C 58.7°F14.8°C
Dew Point 42.6°F5.9°C 31.5°F-0.3°C 36.6°F2.6°C
Winds 3.7 mph 6.0 kmh Calm Calm 1.0 mph S1.6 kmh S
Wind Gusts 10.0 mph16.1 kmh -- 2.0 mph3.2 kmh
Humidity 85% 24% 47%
Pressure 30.02 in1016.6 mb 29.89 in1012.2 mb -
Precipitation 0.00 in0.0 mm - -
Hour Temp Dew Point Humidity Winds Wind Gusts Pressure Precip Precip Rate Daily Precip Total
12:00 AM 57.0°F13.9°C 38.5°F3.6°C 50% Calm Calm -- 29.92 in1013.2 mb 0.00 in0.0 mm 0.00 in0.0 mm 0.00 in0.0 mm
12:05 AM 56.5°F13.6°C 38.1°F3.4°C 50% Calm Calm -- 29.92 in1013.2 mb 0.00 in0.0 mm 0.00 in0.0 mm 0.00 in0.0 mm
12:10 AM 56.0°F13.3°C 38.1°F3.4°C 51% Calm Calm -- 29.92 in1013.2 mb 0.00 in0.0 mm 0.00 in0.0 mm 0.00 in0.0 mm
12:15 AM 55.4°F13.0°C 38.1°F3.4°C 52% Calm Calm -- 29.92 in1013.2 mb 0.00 in0.0 mm 0.00 in0.0 mm 0.00 in0.0 mm
12:20 AM 54.7°F12.6°C 37.9°F3.3°C 53% Calm Calm -- 29.92 in1013.2 mb 0.00 in0.0 mm 0.00 in0.0 mm 0.00 in0.0 mm
12:25 AM 54.4°F12.4°C 38.1°F3.4°C 54% Calm Calm -- 29.92 in1013.2 mb 0.00 in0.0 mm 0.00 in0.0 mm 0.00 in0.0 mm
12:30 AM 54.1°F12.3°C 38.3°F3.5°C 55% Calm Calm 1.0 mph1.6 kmh 29.92 in1013.2 mb 0.00 in0.0 mm 0.00 in0.0 mm 0.00 in0.0 mm
12:35 AM 54.7°F12.6°C 39.8°F4.3°C 57% 0.8 mph SW1.3 kmh SW 3.0 mph4.8 kmh 29.93 in1013.5 mb 0.00 in0.0 mm 0.00 in0.0 mm 0.00 in0.0 mm
12:40 AM 55.6°F13.1°C 40.2°F4.6°C 56% 0.6 mph SW1.0 kmh SW 3.0 mph4.8 kmh 29.92 in1013.2 mb 0.00 in0.0 mm 0.00 in0.0 mm 0.00 in0.0 mm
12:45 AM 55.9°F13.3°C 40.0°F4.4°C 55% Calm Calm 3.0 mph4.8 kmh 29.92 in1013.2 mb 0.00 in0.0 mm 0.00 in0.0 mm 0.00 in0.0 mm
12:50 AM 55.7°F13.2°C 39.8°F4.3°C 55% Calm Calm 1.0 mph1.6 kmh 29.93 in1013.5 mb 0.00 in0.0 mm 0.00 in0.0 mm 0.00 in0.0 mm
12:55 AM 55.3°F12.9°C 39.9°F4.4°C 56% Calm Calm 1.0 mph1.6 kmh 29.93 in1013.5 mb 0.00 in0.0 mm 0.00 in0.0 mm 0.00 in0.0 mm
01:00 AM 55.1°F12.8°C 40.1°F4.5°C 57% Calm Calm 1.0 mph1.6 kmh 29.93 in1013.5 mb 0.00 in0.0 mm 0.00 in0.0 mm 0.00 in0.0 mm
01:05 AM 54.8°F12.7°C 40.3°F4.6°C 58% Calm Calm 1.0 mph1.6 kmh 29.93 in1013.5 mb 0.00 in0.0 mm 0.00 in0.0 mm 0.00 in0.0 mm
01:10 AM 54.5°F12.5°C 40.0°F4.4°C 58% Calm Calm -- 29.93 in1013.5 mb 0.00 in0.0 mm 0.00 in0.0 mm 0.00 in0.0 mm
01:15 AM 54.2°F12.3°C 40.2°F4.6°C 59% Calm Calm -- 29.93 in1013.5 mb 0.00 in0.0 mm 0.00 in0.0 mm 0.00 in0.0 mm
01:20 AM 53.8°F12.1°C 39.8°F4.3°C 59% Calm Calm -- 29.93 in1013.5 mb 0.00 in0.0 mm 0.00 in0.0 mm 0.00 in0.0 mm
01:25 AM 53.2°F11.8°C 39.7°F4.3°C 60% Calm Calm -- 29.93 in1013.5 mb 0.00 in0.0 mm 0.00 in0.0 mm 0.00 in0.0 mm
01:30 AM 52.6°F11.4°C 40.0°F4.4°C 62% Calm Calm -- 29.92 in1013.2 mb 0.00 in0.0 mm 0.00 in0.0 mm 0.00 in0.0 mm
01:35 AM 52.3°F11.3°C 39.7°F4.3°C 62% Calm Calm -- 29.93 in1013.5 mb 0.00 in0.0 mm 0.00 in0.0 mm 0.00 in0.0 mm
01:40 AM 51.7°F10.9°C 39.5°F4.2°C 63% Calm Calm -- 29.93 in1013.5 mb 0.00 in0.0 mm 0.00 in0.0 mm 0.00 in0.0 mm
01:45 AM 51.1°F10.6°C 39.4°F4.1°C 64% Calm Calm -- 29.93 in1013.5 mb 0.00 in0.0 mm 0.00 in0.0 mm 0.00 in0.0 mm
01:50 AM 51.0°F10.6°C 40.0°F4.4°C 66% Calm Calm -- 29.93 in1013.5 mb 0.00 in0.0 mm 0.00 in0.0 mm 0.00 in0.0 mm
01:55 AM 50.9°F10.5°C 39.6°F4.2°C 65% Calm Calm -- 29.93 in1013.5 mb 0.00 in0.0 mm 0.00 in0.0 mm 0.00 in0.0 mm
02:00 AM 50.5°F10.3°C 40.0°F4.4°C 67% Calm Calm -- 29.93 in1013.5 mb 0.00 in0.0 mm 0.00 in0.0 mm 0.00 in0.0 mm
02:05 AM 49.9°F9.9°C 39.4°F4.1°C 67% Calm Calm -- 29.93 in1013.5 mb 0.00 in0.0 mm 0.00 in0.0 mm 0.00 in0.0 mm
02:10 AM 49.5°F9.7°C 39.8°F4.3°C 69% Calm Calm -- 29.93 in1013.5 mb 0.00 in0.0 mm 0.00 in0.0 mm 0.00 in0.0 mm
02:15 AM 50.0°F10.0°C 40.2°F4.6°C 69% Calm Calm -- 29.93 in1013.5 mb 0.00 in0.0 mm 0.00 in0.0 mm 0.00 in0.0 mm
02:20 AM 50.3°F10.2°C 40.1°F4.5°C 68% Calm Calm -- 29.93 in1013.5 mb 0.00 in0.0 mm 0.00 in0.0 mm 0.00 in0.0 mm
02:25 AM 50.4°F10.2°C 40.2°F4.6°C 68% Calm Calm 1.0 mph1.6 kmh 29.93 in1013.5 mb 0.00 in0.0 mm 0.00 in0.0 mm 0.00 in0.0 mm
02:30 AM 50.6°F10.3°C 40.1°F4.5°C 67% Calm Calm 1.0 mph1.6 kmh 29.93 in1013.5 mb 0.00 in0.0 mm 0.00 in0.0 mm 0.00 in0.0 mm
02:35 AM 50.9°F10.5°C 40.0°F4.4°C 66% 0.1 mph WSW0.2 kmh WSW 1.0 mph1.6 kmh 29.93 in1013.5 mb 0.00 in0.0 mm 0.00 in0.0 mm 0.00 in0.0 mm
02:40 AM 50.6°F10.3°C 40.1°F4.5°C 67% Calm Calm 1.0 mph1.6 kmh 29.93 in1013.5 mb 0.00 in0.0 mm 0.00 in0.0 mm 0.00 in0.0 mm
02:45 AM 50.3°F10.2°C 40.5°F4.7°C 69% 0.1 mph NNW0.2 kmh NNW 1.0 mph1.6 kmh 29.93 in1013.5 mb 0.00 in0.0 mm 0.00 in0.0 mm 0.00 in0.0 mm
02:50 AM 50.1°F10.1°C 40.0°F4.4°C 68% Calm Calm 1.0 mph1.6 kmh 29.93 in1013.5 mb 0.00 in0.0 mm 0.00 in0.0 mm 0.00 in0.0 mm
02:55 AM 49.6°F9.8°C 39.9°F4.4°C 69% Calm Calm 1.0 mph1.6 kmh 29.92 in1013.2 mb 0.00 in0.0 mm 0.00 in0.0 mm 0.00 in0.0 mm
03:00 AM 49.2°F9.6°C 39.8°F4.3°C 70% Calm Calm 1.0 mph1.6 kmh 29.92 in1013.2 mb 0.00 in0.0 mm 0.00 in0.0 mm 0.00 in0.0 mm
03:05 AM 49.3°F9.6°C 40.3°F4.6°C 71% Calm Calm 1.0 mph1.6 kmh 29.92 in1013.2 mb 0.00 in0.0 mm 0.00 in0.0 mm 0.00 in0.0 mm
03:10 AM 49.0°F9.4°C 40.0°F4.4°C 71% Calm Calm -- 29.92 in1013.2 mb 0.00 in0.0 mm 0.00 in0.0 mm 0.00 in0.0 mm
03:15 AM 48.9°F9.4°C 40.3°F4.6°C 72% Calm Calm 1.0 mph1.6 kmh 29.92 in1013.2 mb 0.00 in0.0 mm 0.00 in0.0 mm 0.00 in0.0 mm
03:20 AM 48.7°F9.3°C 40.1°F4.5°C 72% Calm Calm 1.0 mph1.6 kmh 29.92 in1013.2 mb 0.00 in0.0 mm 0.00 in0.0 mm 0.00 in0.0 mm
03:25 AM 48.3°F9.1°C 40.1°F4.5°C 73% Calm Calm -- 29.92 in1013.2 mb 0.00 in0.0 mm 0.00 in0.0 mm 0.00 in0.0 mm
03:30 AM 48.0°F8.9°C 39.8°F4.3°C 73% Calm Calm -- 29.92 in1013.2 mb 0.00 in0.0 mm 0.00 in0.0 mm 0.00 in0.0 mm
03:35 AM 47.7°F8.7°C 39.8°F4.3°C 74% Calm Calm -- 29.92 in1013.2 mb 0.00 in0.0 mm 0.00 in0.0 mm 0.00 in0.0 mm
03:40 AM 47.3°F8.5°C 39.4°F4.1°C 74% Calm Calm -- 29.92 in1013.2 mb 0.00 in0.0 mm 0.00 in0.0 mm 0.00 in0.0 mm
03:45 AM 47.0°F8.3°C 39.5°F4.2°C 75% Calm Calm -- 29.92 in1013.2 mb 0.00 in0.0 mm 0.00 in0.0 mm 0.00 in0.0 mm
03:50 AM 46.5°F8.1°C 39.0°F3.9°C 75% Calm Calm -- 29.92 in1013.2 mb 0.00 in0.0 mm 0.00 in0.0 mm 0.00 in0.0 mm
03:55 AM 46.2°F7.9°C 39.4°F4.1°C 77% Calm Calm -- 29.92 in1013.2 mb 0.00 in0.0 mm 0.00 in0.0 mm 0.00 in0.0 mm
04:00 AM 45.8°F7.7°C 39.3°F4.1°C 78% Calm Calm -- 29.92 in1013.2 mb 0.00 in0.0 mm 0.00 in0.0 mm 0.00 in0.0 mm
04:05 AM 45.4°F7.4°C 39.3°F4.1°C 79% Calm Calm -- 29.92 in1013.2 mb 0.00 in0.0 mm 0.00 in0.0 mm 0.00 in0.0 mm
04:10 AM 45.2°F7.3°C 39.4°F4.1°C 80% Calm Calm -- 29.92 in1013.2 mb 0.00 in0.0 mm 0.00 in0.0 mm 0.00 in0.0 mm
04:15 AM 45.7°F7.6°C 39.9°F4.4°C 80% Calm Calm -- 29.92 in1013.2 mb 0.00 in0.0 mm 0.00 in0.0 mm 0.00 in0.0 mm
04:20 AM 46.2°F7.9°C 40.1°F4.5°C 79% Calm Calm -- 29.92 in1013.2 mb 0.00 in0.0 mm 0.00 in0.0 mm 0.00 in0.0 mm
04:25 AM 46.2°F7.9°C 39.7°F4.3°C 78% Calm Calm -- 29.93 in1013.5 mb 0.00 in0.0 mm 0.00 in0.0 mm 0.00 in0.0 mm
04:30 AM 46.4°F8.0°C 39.9°F4.4°C 78% Calm Calm -- 29.92 in1013.2 mb 0.00 in0.0 mm 0.00 in0.0 mm 0.00 in0.0 mm
04:35 AM 46.3°F7.9°C 39.5°F4.2°C 77% Calm Calm -- 29.93 in1013.5 mb 0.00 in0.0 mm 0.00 in0.0 mm 0.00 in0.0 mm
04:40 AM 45.8°F7.7°C 39.3°F4.1°C 78% Calm Calm -- 29.93 in1013.5 mb 0.00 in0.0 mm 0.00 in0.0 mm 0.00 in0.0 mm
04:45 AM 45.2°F7.3°C 39.1°F3.9°C 79% Calm Calm -- 29.93 in1013.5 mb 0.00 in0.0 mm 0.00 in0.0 mm 0.00 in0.0 mm
04:50 AM 44.9°F7.2°C 39.1°F3.9°C 80% Calm Calm -- 29.93 in1013.5 mb 0.00 in0.0 mm 0.00 in0.0 mm 0.00 in0.0 mm
04:55 AM 45.1°F7.3°C 39.6°F4.2°C 81% Calm Calm -- 29.93 in1013.5 mb 0.00 in0.0 mm 0.00 in0.0 mm 0.00 in0.0 mm
05:00 AM 44.9°F7.2°C 39.4°F4.1°C 81% Calm Calm -- 29.93 in1013.5 mb 0.00 in0.0 mm 0.00 in0.0 mm 0.00 in0.0 mm
05:05 AM 45.1°F7.3°C 39.6°F4.2°C 81% Calm Calm -- 29.93 in1013.5 mb 0.00 in0.0 mm 0.00 in0.0 mm 0.00 in0.0 mm
05:10 AM 45.5°F7.5°C 39.7°F4.3°C 80% Calm Calm -- 29.93 in1013.5 mb 0.00 in0.0 mm 0.00 in0.0 mm 0.00 in0.0 mm
05:15 AM 45.7°F7.6°C 39.9°F4.4°C 80% Calm Calm -- 29.93 in1013.5 mb 0.00 in0.0 mm 0.00 in0.0 mm 0.00 in0.0 mm
05:20 AM 45.7°F7.6°C 39.9°F4.4°C 80% Calm Calm -- 29.93 in1013.5 mb 0.00 in0.0 mm 0.00 in0.0 mm 0.00 in0.0 mm
05:25 AM 45.5°F7.5°C 39.7°F4.3°C 80% Calm Calm 1.0 mph1.6 kmh 29.93 in1013.5 mb 0.00 in0.0 mm 0.00 in0.0 mm 0.00 in0.0 mm
05:30 AM 45.2°F7.3°C 39.4°F4.1°C 80% Calm Calm 1.0 mph1.6 kmh 29.93 in1013.5 mb 0.00 in0.0 mm 0.00 in0.0 mm 0.00 in0.0 mm
05:35 AM 45.1°F7.3°C 39.6°F4.2°C 81% Calm Calm -- 29.94 in1013.9 mb 0.00 in0.0 mm 0.00 in0.0 mm 0.00 in0.0 mm
05:40 AM 45.2°F7.3°C 39.7°F4.3°C 81% Calm Calm -- 29.94 in1013.9 mb 0.00 in0.0 mm 0.00 in0.0 mm 0.00 in0.0 mm
05:45 AM 44.9°F7.2°C 39.1°F3.9°C 80% Calm Calm -- 29.94 in1013.9 mb 0.00 in0.0 mm 0.00 in0.0 mm 0.00 in0.0 mm
05:50 AM 44.7°F7.1°C 39.2°F4.0°C 81% Calm Calm -- 29.94 in1013.9 mb 0.00 in0.0 mm 0.00 in0.0 mm 0.00 in0.0 mm
05:55 AM 44.4°F6.9°C 38.9°F3.8°C 81% Calm Calm -- 29.94 in1013.9 mb 0.00 in0.0 mm 0.00 in0.0 mm 0.00 in0.0 mm
06:00 AM 43.9°F6.6°C 38.5°F3.6°C 81% Calm Calm -- 29.94 in1013.9 mb 0.00 in0.0 mm 0.00 in0.0 mm 0.00 in0.0 mm
06:05 AM 43.6°F6.4°C 38.8°F3.8°C 83% Calm Calm -- 29.95 in1014.2 mb 0.00 in0.0 mm 0.00 in0.0 mm 0.00 in0.0 mm
06:10 AM 43.5°F6.4°C 39.0°F3.9°C 84% Calm Calm -- 29.95 in1014.2 mb 0.00 in0.0 mm 0.00 in0.0 mm 0.00 in0.0 mm
06:15 AM 43.8°F6.6°C 39.3°F4.1°C 84% Calm Calm -- 29.95 in1014.2 mb 0.00 in0.0 mm 0.00 in0.0 mm 0.00 in0.0 mm
06:20 AM 43.7°F6.5°C 38.9°F3.8°C 83% Calm Calm -- 29.95 in1014.2 mb 0.00 in0.0 mm 0.00 in0.0 mm 0.00 in0.0 mm
06:25 AM 43.6°F6.4°C 39.1°F3.9°C 84% Calm Calm -- 29.95 in1014.2 mb 0.00 in0.0 mm 0.00 in0.0 mm 0.00 in0.0 mm
06:30 AM 43.8°F6.6°C 39.3°F4.1°C 84% Calm Calm -- 29.95 in1014.2 mb 0.00 in0.0 mm 0.00 in0.0 mm 0.00 in0.0 mm
06:35 AM 44.2°F6.8°C 39.7°F4.3°C 84% Calm Calm -- 29.96 in1014.6 mb 0.00 in0.0 mm 0.00 in0.0 mm 0.00 in0.0 mm
06:40 AM 44.1°F6.7°C 39.0°F3.9°C 82% Calm Calm -- 29.96 in1014.6 mb 0.00 in0.0 mm 0.00 in0.0 mm 0.00 in0.0 mm
06:45 AM 43.9°F6.6°C 39.1°F3.9°C 83% Calm Calm -- 29.96 in1014.6 mb 0.00 in0.0 mm 0.00 in0.0 mm 0.00 in0.0 mm
06:50 AM 43.8°F6.6°C 39.3°F4.1°C 84% Calm Calm -- 29.96 in1014.6 mb 0.00 in0.0 mm 0.00 in0.0 mm 0.00 in0.0 mm
06:55 AM 44.0°F6.7°C 39.8°F4.3°C 85% Calm Calm -- 29.97 in1014.9 mb 0.00 in0.0 mm 0.00 in0.0 mm 0.00 in0.0 mm
07:00 AM 44.5°F6.9°C 40.0°F4.4°C 84% Calm Calm 1.0 mph1.6 kmh 29.97 in1014.9 mb 0.00 in0.0 mm 0.00 in0.0 mm 0.00 in0.0 mm
07:05 AM 44.5°F6.9°C 39.7°F4.3°C 83% Calm Calm 1.0 mph1.6 kmh 29.97 in1014.9 mb 0.00 in0.0 mm 0.00 in0.0 mm 0.00 in0.0 mm
07:10 AM 44.7°F7.1°C 40.2°F4.6°C 84% Calm Calm -- 29.97 in1014.9 mb 0.00 in0.0 mm 0.00 in0.0 mm 0.00 in0.0 mm
07:15 AM 44.7°F7.1°C 39.9°F4.4°C 83% Calm Calm -- 29.98 in1015.2 mb 0.00 in0.0 mm 0.00 in0.0 mm 0.00 in0.0 mm
07:20 AM 45.1°F7.3°C 40.6°F4.8°C 84% Calm Calm -- 29.98 in1015.2 mb 0.00 in0.0 mm 0.00 in0.0 mm 0.00 in0.0 mm
07:25 AM 45.8°F7.7°C 40.6°F4.8°C 82% Calm Calm -- 29.98 in1015.2 mb 0.00 in0.0 mm 0.00 in0.0 mm 0.00 in0.0 mm
07:30 AM 46.7°F8.2°C 40.9°F4.9°C 80% Calm Calm 1.0 mph1.6 kmh 29.98 in1015.2 mb 0.00 in0.0 mm 0.00 in0.0 mm 0.00 in0.0 mm
07:35 AM 47.7°F8.7°C 40.8°F4.9°C 77% 0.5 mph N0.8 kmh N 2.0 mph3.2 kmh 29.98 in1015.2 mb 0.00 in0.0 mm 0.00 in0.0 mm 0.00 in0.0 mm
07:40 AM 49.0°F9.4°C 41.4°F5.2°C 75% 0.1 mph NE0.2 kmh NE 2.0 mph3.2 kmh 29.98 in1015.2 mb 0.00 in0.0 mm 0.00 in0.0 mm 0.00 in0.0 mm
07:45 AM 50.1°F10.1°C 41.4°F5.2°C 72% 0.2 mph NW0.3 kmh NW 2.0 mph3.2 kmh 29.98 in1015.2 mb 0.00 in0.0 mm 0.00 in0.0 mm 0.00 in0.0 mm
07:50 AM 51.0°F10.6°C 41.6°F5.3°C 70% 0.4 mph NNW0.6 kmh NNW 2.0 mph3.2 kmh 29.98 in1015.2 mb 0.00 in0.0 mm 0.00 in0.0 mm 0.00 in0.0 mm
07:55 AM 52.2°F11.2°C 42.0°F5.6°C 68% 0.1 mph NNW0.2 kmh NNW 2.0 mph3.2 kmh 29.98 in1015.2 mb 0.00 in0.0 mm 0.00 in0.0 mm 0.00 in0.0 mm
08:00 AM 53.4°F11.9°C 42.3°F5.7°C 66% 0.2 mph NW0.3 kmh NW 1.0 mph1.6 kmh 29.99 in1015.6 mb 0.00 in0.0 mm 0.00 in0.0 mm 0.00 in0.0 mm
08:05 AM 54.2°F12.3°C 42.3°F5.7°C 64% 0.3 mph NNW0.5 kmh NNW 2.0 mph3.2 kmh 29.99 in1015.6 mb 0.00 in0.0 mm 0.00 in0.0 mm 0.00 in0.0 mm
08:10 AM 55.0°F12.8°C 42.6°F5.9°C 63% 0.2 mph NW0.3 kmh NW 2.0 mph3.2 kmh 29.99 in1015.6 mb 0.00 in0.0 mm 0.00 in0.0 mm 0.00 in0.0 mm
08:15 AM 55.8°F13.2°C 39.9°F4.4°C 55% 0.2 mph NE0.3 kmh NE 1.0 mph1.6 kmh 29.99 in1015.6 mb 0.00 in0.0 mm 0.00 in0.0 mm 0.00 in0.0 mm
08:20 AM 56.4°F13.6°C 39.5°F4.2°C 53% 0.1 mph NNE0.2 kmh NNE 1.0 mph1.6 kmh 29.99 in1015.6 mb 0.00 in0.0 mm 0.00 in0.0 mm 0.00 in0.0 mm
08:25 AM 56.6°F13.7°C 37.1°F2.8°C 48% 0.1 mph NE0.2 kmh NE 1.0 mph1.6 kmh 29.99 in1015.6 mb 0.00 in0.0 mm 0.00 in0.0 mm 0.00 in0.0 mm
08:30 AM 56.8°F13.8°C 37.8°F3.2°C 49% 0.4 mph NE0.6 kmh NE 1.0 mph1.6 kmh 30.00 in1015.9 mb 0.00 in0.0 mm 0.00 in0.0 mm 0.00 in0.0 mm
08:35 AM 57.0°F13.9°C 38.5°F3.6°C 50% 0.2 mph E0.3 kmh E 1.0 mph1.6 kmh 30.00 in1015.9 mb 0.00 in0.0 mm 0.00 in0.0 mm 0.00 in0.0 mm
08:40 AM 57.3°F14.1°C 38.3°F3.5°C 49% Calm Calm 1.0 mph1.6 kmh 30.00 in1015.9 mb 0.00 in0.0 mm 0.00 in0.0 mm 0.00 in0.0 mm
08:45 AM 57.3°F14.1°C 36.1°F2.3°C 45% 0.4 mph E0.6 kmh E 2.0 mph3.2 kmh 30.00 in1015.9 mb 0.00 in0.0 mm 0.00 in0.0 mm 0.00 in0.0 mm
08:50 AM 57.2°F14.0°C 36.1°F2.3°C 45% 0.3 mph E0.5 kmh E 2.0 mph3.2 kmh 30.00 in1015.9 mb 0.00 in0.0 mm 0.00 in0.0 mm 0.00 in0.0 mm
08:55 AM 57.4°F14.1°C 36.8°F2.7°C 46% 0.2 mph E0.3 kmh E 1.0 mph1.6 kmh 30.00 in1015.9 mb 0.00 in0.0 mm 0.00 in0.0 mm 0.00 in0.0 mm
09:00 AM 57.6°F14.2°C 37.5°F3.1°C 47% 0.2 mph SE0.3 kmh SE 1.0 mph1.6 kmh 30.00 in1015.9 mb 0.00 in0.0 mm 0.00 in0.0 mm 0.00 in0.0 mm
09:05 AM 57.9°F14.4°C 37.2°F2.9°C 46% 0.4 mph SE0.6 kmh SE 1.0 mph1.6 kmh 30.00 in1015.9 mb 0.00 in0.0 mm 0.00 in0.0 mm 0.00 in0.0 mm
09:10 AM 58.2°F14.6°C 37.5°F3.1°C 46% 0.2 mph E0.3 kmh E 1.0 mph1.6 kmh 30.01 in1016.3 mb 0.00 in0.0 mm 0.00 in0.0 mm 0.00 in0.0 mm
09:15 AM 58.8°F14.9°C 37.5°F3.1°C 45% Calm Calm 1.0 mph1.6 kmh 30.01 in1016.3 mb 0.00 in0.0 mm 0.00 in0.0 mm 0.00 in0.0 mm
09:20 AM 59.1°F15.1°C 37.8°F3.2°C 45% 0.3 mph SSW0.5 kmh SSW 2.0 mph3.2 kmh 30.01 in1016.3 mb 0.00 in0.0 mm 0.00 in0.0 mm 0.00 in0.0 mm
09:25 AM 59.3°F15.2°C 36.8°F2.7°C 43% 0.9 mph S1.4 kmh S 2.0 mph3.2 kmh 30.01 in1016.3 mb 0.00 in0.0 mm 0.00 in0.0 mm 0.00 in0.0 mm
09:30 AM 59.6°F15.3°C 37.1°F2.8°C 43% 0.6 mph S1.0 kmh S 3.0 mph4.8 kmh 30.01 in1016.3 mb 0.00 in0.0 mm 0.00 in0.0 mm 0.00 in0.0 mm
09:35 AM 60.2°F15.7°C 37.6°F3.1°C 43% 0.3 mph S0.5 kmh S 3.0 mph4.8 kmh 30.01 in1016.3 mb 0.00 in0.0 mm 0.00 in0.0 mm 0.00 in0.0 mm
09:40 AM 60.9°F16.1°C 37.7°F3.2°C 42% 0.2 mph SSW0.3 kmh SSW 3.0 mph4.8 kmh 30.01 in1016.3 mb 0.00 in0.0 mm 0.00 in0.0 mm 0.00 in0.0 mm
09:45 AM 61.5°F16.4°C 38.8°F3.8°C 43% 0.4 mph SW0.6 kmh SW 3.0 mph4.8 kmh 30.01 in1016.3 mb 0.00 in0.0 mm 0.00 in0.0 mm 0.00 in0.0 mm
09:50 AM 62.1°F16.7°C 38.1°F3.4°C 41% 0.4 mph S0.6 kmh S 3.0 mph4.8 kmh 30.01 in1016.3 mb 0.00 in0.0 mm 0.00 in0.0 mm 0.00 in0.0 mm
09:55 AM 62.8°F17.1°C 38.1°F3.4°C 40% 0.2 mph S0.3 kmh S 2.0 mph3.2 kmh 30.01 in1016.3 mb 0.00 in0.0 mm 0.00 in0.0 mm 0.00 in0.0 mm
10:00 AM 62.9°F17.2°C 36.9°F2.7°C 38% 1.9 mph S3.1 kmh S 6.0 mph9.7 kmh 30.01 in1016.3 mb 0.00 in0.0 mm 0.00 in0.0 mm 0.00 in0.0 mm
10:05 AM 62.8°F17.1°C 36.8°F2.7°C 38% 1.2 mph SSW1.9 kmh SSW 6.0 mph9.7 kmh 30.01 in1016.3 mb 0.00 in0.0 mm 0.00 in0.0 mm 0.00 in0.0 mm
10:10 AM 63.1°F17.3°C 35.7°F2.1°C 36% 0.9 mph SSE1.4 kmh SSE 3.0 mph4.8 kmh 30.02 in1016.6 mb 0.00 in0.0 mm 0.00 in0.0 mm 0.00 in0.0 mm
10:15 AM 63.2°F17.3°C 35.1°F1.7°C 35% 0.9 mph E1.4 kmh E 3.0 mph4.8 kmh 30.02 in1016.6 mb 0.00 in0.0 mm 0.00 in0.0 mm 0.00 in0.0 mm
10:20 AM 63.4°F17.4°C 36.7°F2.6°C 37% 0.9 mph SW1.4 kmh SW 3.0 mph4.8 kmh 30.01 in1016.3 mb 0.00 in0.0 mm 0.00 in0.0 mm 0.00 in0.0 mm
10:25 AM 64.1°F17.8°C 35.9°F2.2°C 35% 0.3 mph S0.5 kmh S 3.0 mph4.8 kmh 30.01 in1016.3 mb 0.00 in0.0 mm 0.00 in0.0 mm 0.00 in0.0 mm
10:30 AM 64.4°F18.0°C 36.9°F2.7°C 36% 1.6 mph S2.6 kmh S 4.0 mph6.4 kmh 30.01 in1016.3 mb 0.00 in0.0 mm 0.00 in0.0 mm 0.00 in0.0 mm
10:35 AM 64.7°F18.2°C 36.4°F2.4°C 35% 1.0 mph S1.6 kmh S 5.0 mph8.0 kmh 30.02 in1016.6 mb 0.00 in0.0 mm 0.00 in0.0 mm 0.00 in0.0 mm
10:40 AM 64.8°F18.2°C 37.2°F2.9°C 36% 0.7 mph S1.1 kmh S 5.0 mph8.0 kmh 30.02 in1016.6 mb 0.00 in0.0 mm 0.00 in0.0 mm 0.00 in0.0 mm
10:45 AM 65.2°F18.4°C 37.6°F3.1°C 36% 0.5 mph SSW0.8 kmh SSW 2.0 mph3.2 kmh 30.01 in1016.3 mb 0.00 in0.0 mm 0.00 in0.0 mm 0.00 in0.0 mm
10:50 AM 65.4°F18.6°C 36.3°F2.4°C 34% 1.1 mph S1.8 kmh S 3.0 mph4.8 kmh 30.01 in1016.3 mb 0.00 in0.0 mm 0.00 in0.0 mm 0.00 in0.0 mm
10:55 AM 65.8°F18.8°C 35.9°F2.2°C 33% 0.6 mph ENE1.0 kmh ENE 3.0 mph4.8 kmh 30.01 in1016.3 mb 0.00 in0.0 mm 0.00 in0.0 mm 0.00 in0.0 mm
11:00 AM 66.1°F18.9°C 37.6°F3.1°C 35% 1.4 mph S2.3 kmh S 3.0 mph4.8 kmh 30.01 in1016.3 mb 0.00 in0.0 mm 0.00 in0.0 mm 0.00 in0.0 mm
11:05 AM 66.4°F19.1°C 36.4°F2.4°C 33% 0.7 mph SSW1.1 kmh SSW 3.0 mph4.8 kmh 30.01 in1016.3 mb 0.00 in0.0 mm 0.00 in0.0 mm 0.00 in0.0 mm
11:10 AM 65.7°F18.7°C 35.0°F1.7°C 32% 1.2 mph E1.9 kmh E 3.0 mph4.8 kmh 30.00 in1015.9 mb 0.00 in0.0 mm 0.00 in0.0 mm 0.00 in0.0 mm
11:15 AM 65.0°F18.3°C 35.2°F1.8°C 33% 0.8 mph ENE1.3 kmh ENE 3.0 mph4.8 kmh 30.01 in1016.3 mb 0.00 in0.0 mm 0.00 in0.0 mm 0.00 in0.0 mm
11:20 AM 65.6°F18.7°C 37.9°F3.3°C 36% 0.8 mph WSW1.3 kmh WSW 4.0 mph6.4 kmh 30.00 in1015.9 mb 0.00 in0.0 mm 0.00 in0.0 mm 0.00 in0.0 mm
11:25 AM 66.4°F19.1°C 37.2°F2.9°C 34% 1.0 mph S1.6 kmh S 4.0 mph6.4 kmh 30.00 in1015.9 mb 0.00 in0.0 mm 0.00 in0.0 mm 0.00 in0.0 mm
11:30 AM 67.0°F19.4°C 39.2°F4.0°C 36% 0.9 mph SE1.4 kmh SE 3.0 mph4.8 kmh 30.00 in1015.9 mb 0.00 in0.0 mm 0.00 in0.0 mm 0.00 in0.0 mm
11:35 AM 67.4°F19.7°C 38.8°F3.8°C 35% 1.6 mph S2.6 kmh S 4.0 mph6.4 kmh 30.00 in1015.9 mb 0.00 in0.0 mm 0.00 in0.0 mm 0.00 in0.0 mm
11:40 AM 67.5°F19.7°C 38.9°F3.8°C 35% 0.6 mph S1.0 kmh S 4.0 mph6.4 kmh 30.00 in1015.9 mb 0.00 in0.0 mm 0.00 in0.0 mm 0.00 in0.0 mm
11:45 AM 67.4°F19.7°C 38.8°F3.8°C 35% 2.2 mph SW3.5 kmh SW 5.0 mph8.0 kmh 30.00 in1015.9 mb 0.00 in0.0 mm 0.00 in0.0 mm 0.00 in0.0 mm
11:50 AM 67.9°F19.9°C 40.0°F4.4°C 36% 0.8 mph S1.3 kmh S 5.0 mph8.0 kmh 30.00 in1015.9 mb 0.00 in0.0 mm 0.00 in0.0 mm 0.00 in0.0 mm
11:55 AM 68.3°F20.2°C 39.6°F4.2°C 35% 1.3 mph S2.1 kmh S 4.0 mph6.4 kmh 30.00 in1015.9 mb 0.00 in0.0 mm 0.00 in0.0 mm 0.00 in0.0 mm
12:00 PM 68.6°F20.3°C 39.8°F4.3°C 35% 1.6 mph S2.6 kmh S 4.0 mph6.4 kmh 30.00 in1015.9 mb 0.00 in0.0 mm 0.00 in0.0 mm 0.00 in0.0 mm
12:05 PM 69.2°F20.7°C 41.1°F5.1°C 36% 1.7 mph SSW2.7 kmh SSW 4.0 mph6.4 kmh 30.00 in1015.9 mb 0.00 in0.0 mm 0.00 in0.0 mm 0.00 in0.0 mm
12:10 PM 68.6°F20.3°C 39.1°F3.9°C 34% 1.5 mph SSE2.4 kmh SSE 4.0 mph6.4 kmh 30.00 in1015.9 mb 0.00 in0.0 mm 0.00 in0.0 mm 0.00 in0.0 mm
12:15 PM 67.2°F19.6°C 39.3°F4.1°C 36% 1.0 mph E1.6 kmh E 4.0 mph6.4 kmh 29.99 in1015.6 mb 0.00 in0.0 mm 0.00 in0.0 mm 0.00 in0.0 mm
12:20 PM 67.3°F19.6°C 38.7°F3.7°C 35% 1.0 mph S1.6 kmh S 6.0 mph9.7 kmh 29.99 in1015.6 mb 0.00 in0.0 mm 0.00 in0.0 mm 0.00 in0.0 mm
12:25 PM 67.0°F19.4°C 38.4°F3.6°C 35% 1.4 mph S2.3 kmh S 6.0 mph9.7 kmh 29.99 in1015.6 mb 0.00 in0.0 mm 0.00 in0.0 mm 0.00 in0.0 mm
12:30 PM 66.4°F19.1°C 37.9°F3.3°C 35% 0.6 mph SSW1.0 kmh SSW 4.0 mph6.4 kmh 29.99 in1015.6 mb 0.00 in0.0 mm 0.00 in0.0 mm 0.00 in0.0 mm
12:35 PM 67.1°F19.5°C 39.2°F4.0°C 36% 1.6 mph S2.6 kmh S 4.0 mph6.4 kmh 29.98 in1015.2 mb 0.00 in0.0 mm 0.00 in0.0 mm 0.00 in0.0 mm
12:40 PM 67.4°F19.7°C 38.8°F3.8°C 35% 2.2 mph SSW3.5 kmh SSW 6.0 mph9.7 kmh 29.98 in1015.2 mb 0.00 in0.0 mm 0.00 in0.0 mm 0.00 in0.0 mm
12:45 PM 67.0°F19.4°C 38.4°F3.6°C 35% 0.7 mph S1.1 kmh S 6.0 mph9.7 kmh 29.98 in1015.2 mb 0.00 in0.0 mm 0.00 in0.0 mm 0.00 in0.0 mm
12:50 PM 67.1°F19.5°C 39.2°F4.0°C 36% 1.2 mph S1.9 kmh S 4.0 mph6.4 kmh 29.98 in1015.2 mb 0.00 in0.0 mm 0.00 in0.0 mm 0.00 in0.0 mm
12:55 PM 68.4°F20.2°C 39.7°F4.3°C 35% 1.2 mph SSW1.9 kmh SSW 4.0 mph6.4 kmh 29.98 in1015.2 mb 0.00 in0.0 mm 0.00 in0.0 mm 0.00 in0.0 mm
01:00 PM 69.3°F20.7°C 39.0°F3.9°C 33% 2.0 mph S3.2 kmh S 5.0 mph8.0 kmh 29.98 in1015.2 mb 0.00 in0.0 mm 0.00 in0.0 mm 0.00 in0.0 mm
01:05 PM 69.0°F20.6°C 37.9°F3.3°C 32% 1.6 mph S2.6 kmh S 5.0 mph8.0 kmh 29.98 in1015.2 mb 0.00 in0.0 mm 0.00 in0.0 mm 0.00 in0.0 mm
01:10 PM 68.1°F20.1°C 37.9°F3.3°C 33% 1.1 mph SSE1.8 kmh SSE 4.0 mph6.4 kmh 29.97 in1014.9 mb 0.00 in0.0 mm 0.00 in0.0 mm 0.00 in0.0 mm
01:15 PM 68.5°F20.3°C 38.3°F3.5°C 33% 0.9 mph SW1.4 kmh SW 3.0 mph4.8 kmh 29.97 in1014.9 mb 0.00 in0.0 mm 0.00 in0.0 mm 0.00 in0.0 mm
01:20 PM 68.5°F20.3°C 37.5°F3.1°C 32% 1.4 mph S2.3 kmh S 5.0 mph8.0 kmh 29.96 in1014.6 mb 0.00 in0.0 mm 0.00 in0.0 mm 0.00 in0.0 mm
01:25 PM 68.6°F20.3°C 36.8°F2.7°C 31% 3.4 mph S5.5 kmh S 7.0 mph11.3 kmh 29.96 in1014.6 mb 0.00 in0.0 mm 0.00 in0.0 mm 0.00 in0.0 mm
01:30 PM 69.2°F20.7°C 37.3°F2.9°C 31% 2.7 mph SSW4.3 kmh SSW 8.0 mph12.9 kmh 29.96 in1014.6 mb 0.00 in0.0 mm 0.00 in0.0 mm 0.00 in0.0 mm
01:35 PM 69.0°F20.6°C 36.3°F2.4°C 30% 2.2 mph S3.5 kmh S 8.0 mph12.9 kmh 29.96 in1014.6 mb 0.00 in0.0 mm 0.00 in0.0 mm 0.00 in0.0 mm
01:40 PM 68.5°F20.3°C 36.7°F2.6°C 31% 1.4 mph S2.3 kmh S 5.0 mph8.0 kmh 29.95 in1014.2 mb 0.00 in0.0 mm 0.00 in0.0 mm 0.00 in0.0 mm
01:45 PM 69.2°F20.7°C 35.6°F2.0°C 29% 1.2 mph S1.9 kmh S 4.0 mph6.4 kmh 29.95 in1014.2 mb 0.00 in0.0 mm 0.00 in0.0 mm 0.00 in0.0 mm
01:50 PM 69.8°F21.0°C 37.0°F2.8°C 30% 1.0 mph S1.6 kmh S 3.0 mph4.8 kmh 29.95 in1014.2 mb 0.00 in0.0 mm 0.00 in0.0 mm 0.00 in0.0 mm
01:55 PM 69.6°F20.9°C 35.0°F1.7°C 28% 2.4 mph S3.9 kmh S 8.0 mph12.9 kmh 29.94 in1013.9 mb 0.00 in0.0 mm 0.00 in0.0 mm 0.00 in0.0 mm
02:00 PM 69.4°F20.8°C 35.8°F2.1°C 29% 2.4 mph S3.9 kmh S 8.0 mph12.9 kmh 29.94 in1013.9 mb 0.00 in0.0 mm 0.00 in0.0 mm 0.00 in0.0 mm
02:05 PM 69.7°F20.9°C 36.9°F2.7°C 30% 1.3 mph SSW2.1 kmh SSW 6.0 mph9.7 kmh 29.94 in1013.9 mb 0.00 in0.0 mm 0.00 in0.0 mm 0.00 in0.0 mm
02:10 PM 70.4°F21.3°C 34.8°F1.6°C 27% 1.2 mph SW1.9 kmh SW 5.0 mph8.0 kmh 29.93 in1013.5 mb 0.00 in0.0 mm 0.00 in0.0 mm 0.00 in0.0 mm
02:15 PM 70.9°F21.6°C 36.2°F2.3°C 28% 1.2 mph SSE1.9 kmh SSE 5.0 mph8.0 kmh 29.93 in1013.5 mb 0.00 in0.0 mm 0.00 in0.0 mm 0.00 in0.0 mm
02:20 PM 70.9°F21.6°C 35.2°F1.8°C 27% 2.5 mph S4.0 kmh S 8.0 mph12.9 kmh 29.93 in1013.5 mb 0.00 in0.0 mm 0.00 in0.0 mm 0.00 in0.0 mm
02:25 PM 70.6°F21.4°C 35.0°F1.7°C 27% 3.6 mph S5.8 kmh S 8.0 mph12.9 kmh 29.93 in1013.5 mb 0.00 in0.0 mm 0.00 in0.0 mm 0.00 in0.0 mm
02:30 PM 70.7°F21.5°C 35.1°F1.7°C 27% 2.9 mph SSW4.7 kmh SSW 10.0 mph16.1 kmh 29.93 in1013.5 mb 0.00 in0.0 mm 0.00 in0.0 mm 0.00 in0.0 mm
02:35 PM 70.4°F21.3°C 34.8°F1.6°C 27% 2.3 mph SSW3.7 kmh SSW 10.0 mph16.1 kmh 29.93 in1013.5 mb 0.00 in0.0 mm 0.00 in0.0 mm 0.00 in0.0 mm
02:40 PM 70.6°F21.4°C 35.0°F1.7°C 27% 1.0 mph S1.6 kmh S 6.0 mph9.7 kmh 29.93 in1013.5 mb 0.00 in0.0 mm 0.00 in0.0 mm 0.00 in0.0 mm
02:45 PM 71.0°F21.7°C 36.2°F2.3°C 28% 1.0 mph SSE1.6 kmh SSE 4.0 mph6.4 kmh 29.93 in1013.5 mb 0.00 in0.0 mm 0.00 in0.0 mm 0.00 in0.0 mm
02:50 PM 70.8°F21.6°C 34.2°F1.2°C 26% 3.4 mph S5.5 kmh S 7.0 mph11.3 kmh 29.92 in1013.2 mb 0.00 in0.0 mm 0.00 in0.0 mm 0.00 in0.0 mm
02:55 PM 70.5°F21.4°C 34.9°F1.6°C 27% 2.4 mph S3.9 kmh S 7.0 mph11.3 kmh 29.92 in1013.2 mb 0.00 in0.0 mm 0.00 in0.0 mm 0.00 in0.0 mm
03:00 PM 70.5°F21.4°C 34.0°F1.1°C 26% 1.4 mph S2.3 kmh S 6.0 mph9.7 kmh 29.92 in1013.2 mb 0.00 in0.0 mm 0.00 in0.0 mm 0.00 in0.0 mm
03:05 PM 70.5°F21.4°C 34.0°F1.1°C 26% 1.6 mph S2.6 kmh S 6.0 mph9.7 kmh 29.92 in1013.2 mb 0.00 in0.0 mm 0.00 in0.0 mm 0.00 in0.0 mm
03:10 PM 70.7°F21.5°C 35.1°F1.7°C 27% 1.2 mph S1.9 kmh S 5.0 mph8.0 kmh 29.92 in1013.2 mb 0.00 in0.0 mm 0.00 in0.0 mm 0.00 in0.0 mm
03:15 PM 70.7°F21.5°C 34.1°F1.2°C 26% 1.0 mph S1.6 kmh S 5.0 mph8.0 kmh 29.92 in1013.2 mb 0.00 in0.0 mm 0.00 in0.0 mm 0.00 in0.0 mm
03:20 PM 70.5°F21.4°C 34.0°F1.1°C 26% 2.6 mph SSW4.2 kmh SSW 6.0 mph9.7 kmh 29.91 in1012.9 mb 0.00 in0.0 mm 0.00 in0.0 mm 0.00 in0.0 mm
03:25 PM 70.7°F21.5°C 34.1°F1.2°C 26% 2.4 mph S3.9 kmh S 6.0 mph9.7 kmh 29.91 in1012.9 mb 0.00 in0.0 mm 0.00 in0.0 mm 0.00 in0.0 mm
03:30 PM 70.2°F21.2°C 32.7°F0.4°C 25% 1.5 mph S2.4 kmh S 6.0 mph9.7 kmh 29.91 in1012.9 mb 0.00 in0.0 mm 0.00 in0.0 mm 0.00 in0.0 mm
03:35 PM 70.2°F21.2°C 34.6°F1.4°C 27% 0.9 mph S1.4 kmh S 5.0 mph8.0 kmh 29.90 in1012.5 mb 0.00 in0.0 mm 0.00 in0.0 mm 0.00 in0.0 mm
03:40 PM 70.5°F21.4°C 34.0°F1.1°C 26% 2.2 mph SSW3.5 kmh SSW 6.0 mph9.7 kmh 29.90 in1012.5 mb 0.00 in0.0 mm 0.00 in0.0 mm 0.00 in0.0 mm
03:45 PM 70.0°F21.1°C 33.5°F0.8°C 26% 3.7 mph SSW6.0 kmh SSW 7.0 mph11.3 kmh 29.90 in1012.5 mb 0.00 in0.0 mm 0.00 in0.0 mm 0.00 in0.0 mm
03:50 PM 69.9°F21.1°C 33.4°F0.8°C 26% 1.8 mph S2.9 kmh S 7.0 mph11.3 kmh 29.90 in1012.5 mb 0.00 in0.0 mm 0.00 in0.0 mm 0.00 in0.0 mm
03:55 PM 69.9°F21.1°C 32.5°F0.3°C 25% 2.6 mph S4.2 kmh S 6.0 mph9.7 kmh 29.90 in1012.5 mb 0.00 in0.0 mm 0.00 in0.0 mm 0.00 in0.0 mm
04:00 PM 69.9°F21.1°C 32.5°F0.3°C 25% 0.8 mph S1.3 kmh S 6.0 mph9.7 kmh 29.90 in1012.5 mb 0.00 in0.0 mm 0.00 in0.0 mm 0.00 in0.0 mm
04:05 PM 70.3°F21.3°C 32.8°F0.4°C 25% 1.4 mph S2.3 kmh S 4.0 mph6.4 kmh 29.90 in1012.5 mb 0.00 in0.0 mm 0.00 in0.0 mm 0.00 in0.0 mm
04:10 PM 70.4°F21.3°C 32.9°F0.5°C 25% 2.7 mph S4.3 kmh S 9.0 mph14.5 kmh 29.90 in1012.5 mb 0.00 in0.0 mm 0.00 in0.0 mm 0.00 in0.0 mm
04:15 PM 70.0°F21.1°C 32.6°F0.3°C 25% 2.6 mph S4.2 kmh S 9.0 mph14.5 kmh 29.90 in1012.5 mb 0.00 in0.0 mm 0.00 in0.0 mm 0.00 in0.0 mm
04:20 PM 69.9°F21.1°C 32.5°F0.3°C 25% 2.6 mph S4.2 kmh S 5.0 mph8.0 kmh 29.90 in1012.5 mb 0.00 in0.0 mm 0.00 in0.0 mm 0.00 in0.0 mm
04:25 PM 69.7°F20.9°C 32.3°F0.2°C 25% 1.4 mph S2.3 kmh S 5.0 mph8.0 kmh 29.90 in1012.5 mb 0.00 in0.0 mm 0.00 in0.0 mm 0.00 in0.0 mm
04:30 PM 69.7°F20.9°C 33.3°F0.7°C 26% 1.5 mph S2.4 kmh S 6.0 mph9.7 kmh 29.90 in1012.5 mb 0.00 in0.0 mm 0.00 in0.0 mm 0.00 in0.0 mm
04:35 PM 69.8°F21.0°C 33.4°F0.8°C 26% 1.1 mph S1.8 kmh S 6.0 mph9.7 kmh 29.90 in1012.5 mb 0.00 in0.0 mm 0.00 in0.0 mm 0.00 in0.0 mm
04:40 PM 69.9°F21.1°C 33.4°F0.8°C 26% 0.7 mph S1.1 kmh S 5.0 mph8.0 kmh 29.90 in1012.5 mb 0.00 in0.0 mm 0.00 in0.0 mm 0.00 in0.0 mm
04:45 PM 69.9°F21.1°C 31.5°F-0.3°C 24% 1.6 mph S2.6 kmh S 5.0 mph8.0 kmh 29.90 in1012.5 mb 0.00 in0.0 mm 0.00 in0.0 mm 0.00 in0.0 mm
04:50 PM 69.6°F20.9°C 32.2°F0.1°C 25% 1.7 mph S2.7 kmh S 5.0 mph8.0 kmh 29.90 in1012.5 mb 0.00 in0.0 mm 0.00 in0.0 mm 0.00 in0.0 mm
04:55 PM 69.4°F20.8°C 33.0°F0.6°C 26% 1.9 mph S3.1 kmh S 5.0 mph8.0 kmh 29.89 in1012.2 mb 0.00 in0.0 mm 0.00 in0.0 mm 0.00 in0.0 mm
05:00 PM 69.3°F20.7°C 32.9°F0.5°C 26% 1.7 mph S2.7 kmh S 5.0 mph8.0 kmh 29.89 in1012.2 mb 0.00 in0.0 mm 0.00 in0.0 mm 0.00 in0.0 mm
05:05 PM 69.2°F20.7°C 31.9°F-0.1°C 25% 2.6 mph S4.2 kmh S 5.0 mph8.0 kmh 29.89 in1012.2 mb 0.00 in0.0 mm 0.00 in0.0 mm 0.00 in0.0 mm
05:10 PM 68.9°F20.5°C 31.6°F-0.2°C 25% 1.0 mph SSE1.6 kmh SSE 5.0 mph8.0 kmh 29.89 in1012.2 mb 0.00 in0.0 mm 0.00 in0.0 mm 0.00 in0.0 mm
05:15 PM 69.2°F20.7°C 32.9°F0.5°C 26% 1.5 mph S2.4 kmh S 3.0 mph4.8 kmh 29.89 in1012.2 mb 0.00 in0.0 mm 0.00 in0.0 mm 0.00 in0.0 mm
05:20 PM 69.0°F20.6°C 32.7°F0.4°C 26% 2.4 mph S3.9 kmh S 5.0 mph8.0 kmh 29.89 in1012.2 mb 0.00 in0.0 mm 0.00 in0.0 mm 0.00 in0.0 mm
05:25 PM 68.9°F20.5°C 33.5°F0.8°C 27% 0.6 mph SSE1.0 kmh SSE 5.0 mph8.0 kmh 29.89 in1012.2 mb 0.00 in0.0 mm 0.00 in0.0 mm 0.00 in0.0 mm
05:30 PM 69.0°F20.6°C 32.7°F0.4°C 26% 1.1 mph S1.8 kmh S 4.0 mph6.4 kmh 29.89 in1012.2 mb 0.00 in0.0 mm 0.00 in0.0 mm 0.00 in0.0 mm
05:35 PM 68.8°F20.4°C 32.5°F0.3°C 26% 1.3 mph SSW2.1 kmh SSW 7.0 mph11.3 kmh 29.89 in1012.2 mb 0.00 in0.0 mm 0.00 in0.0 mm 0.00 in0.0 mm
05:40 PM 68.5°F20.3°C 32.3°F0.2°C 26% 3.0 mph S4.8 kmh S 10.0 mph16.1 kmh 29.90 in1012.5 mb 0.00 in0.0 mm 0.00 in0.0 mm 0.00 in0.0 mm
05:45 PM 68.1°F20.1°C 32.9°F0.5°C 27% 2.1 mph S3.4 kmh S 10.0 mph16.1 kmh 29.89 in1012.2 mb 0.00 in0.0 mm 0.00 in0.0 mm 0.00 in0.0 mm
05:50 PM 68.0°F20.0°C 32.8°F0.4°C 27% 1.7 mph SW2.7 kmh SW 6.0 mph9.7 kmh 29.90 in1012.5 mb 0.00 in0.0 mm 0.00 in0.0 mm 0.00 in0.0 mm
05:55 PM 68.0°F20.0°C 32.8°F0.4°C 27% 1.1 mph SSW1.8 kmh SSW 6.0 mph9.7 kmh 29.90 in1012.5 mb 0.00 in0.0 mm 0.00 in0.0 mm 0.00 in0.0 mm
06:00 PM 67.9°F19.9°C 32.7°F0.4°C 27% 1.6 mph SSW2.6 kmh SSW 5.0 mph8.0 kmh 29.90 in1012.5 mb 0.00 in0.0 mm 0.00 in0.0 mm 0.00 in0.0 mm
06:05 PM 67.6°F19.8°C 33.3°F0.7°C 28% 1.1 mph S1.8 kmh S 5.0 mph8.0 kmh 29.90 in1012.5 mb 0.00 in0.0 mm 0.00 in0.0 mm 0.00 in0.0 mm
06:10 PM 67.4°F19.7°C 33.2°F0.7°C 28% 1.0 mph S1.6 kmh S 3.0 mph4.8 kmh 29.90 in1012.5 mb 0.00 in0.0 mm 0.00 in0.0 mm 0.00 in0.0 mm
06:15 PM 67.1°F19.5°C 32.9°F0.5°C 28% 1.9 mph S3.1 kmh S 6.0 mph9.7 kmh 29.90 in1012.5 mb 0.00 in0.0 mm 0.00 in0.0 mm 0.00 in0.0 mm
06:20 PM 66.7°F19.3°C 32.6°F0.3°C 28% 1.7 mph SSW2.7 kmh SSW 6.0 mph9.7 kmh 29.90 in1012.5 mb 0.00 in0.0 mm 0.00 in0.0 mm 0.00 in0.0 mm
06:25 PM 66.0°F18.9°C 32.0°F0.0°C 28% 1.2 mph S1.9 kmh S 4.0 mph6.4 kmh 29.90 in1012.5 mb 0.00 in0.0 mm 0.00 in0.0 mm 0.00 in0.0 mm
06:30 PM 65.3°F18.5°C 32.2°F0.1°C 29% 1.1 mph SW1.8 kmh SW 4.0 mph6.4 kmh 29.90 in1012.5 mb 0.00 in0.0 mm 0.00 in0.0 mm 0.00 in0.0 mm
06:35 PM 64.7°F18.2°C 31.7°F-0.2°C 29% 1.0 mph SW1.6 kmh SW 3.0 mph4.8 kmh 29.90 in1012.5 mb 0.00 in0.0 mm 0.00 in0.0 mm 0.00 in0.0 mm
06:40 PM 64.3°F17.9°C 32.2°F0.1°C 30% 1.1 mph SSW1.8 kmh SSW 4.0 mph6.4 kmh 29.90 in1012.5 mb 0.00 in0.0 mm 0.00 in0.0 mm 0.00 in0.0 mm
06:45 PM 63.8°F17.7°C 31.8°F-0.1°C 30% 0.7 mph S1.1 kmh S 4.0 mph6.4 kmh 29.90 in1012.5 mb 0.00 in0.0 mm 0.00 in0.0 mm 0.00 in0.0 mm
06:50 PM 63.5°F17.5°C 31.5°F-0.3°C 30% 0.8 mph S1.3 kmh S 3.0 mph4.8 kmh 29.90 in1012.5 mb 0.00 in0.0 mm 0.00 in0.0 mm 0.00 in0.0 mm
06:55 PM 63.3°F17.4°C 32.2°F0.1°C 31% 0.5 mph SSW0.8 kmh SSW 3.0 mph4.8 kmh 29.90 in1012.5 mb 0.00 in0.0 mm 0.00 in0.0 mm 0.00 in0.0 mm
07:00 PM 63.1°F17.3°C 32.0°F0.0°C 31% 0.9 mph SW1.4 kmh SW 4.0 mph6.4 kmh 29.90 in1012.5 mb 0.00 in0.0 mm 0.00 in0.0 mm 0.00 in0.0 mm
07:05 PM 62.9°F17.2°C 32.6°F0.3°C 32% 0.4 mph S0.6 kmh S 4.0 mph6.4 kmh 29.91 in1012.9 mb 0.00 in0.0 mm 0.00 in0.0 mm 0.00 in0.0 mm
07:10 PM 62.6°F17.0°C 32.3°F0.2°C 32% 0.2 mph SSW0.3 kmh SSW 2.0 mph3.2 kmh 29.91 in1012.9 mb 0.00 in0.0 mm 0.00 in0.0 mm 0.00 in0.0 mm
07:15 PM 62.4°F16.9°C 32.2°F0.1°C 32% 0.4 mph S0.6 kmh S 2.0 mph3.2 kmh 29.91 in1012.9 mb 0.00 in0.0 mm 0.00 in0.0 mm 0.00 in0.0 mm
07:20 PM 62.2°F16.8°C 32.0°F0.0°C 32% 0.3 mph SSW0.5 kmh SSW 2.0 mph3.2 kmh 29.91 in1012.9 mb 0.00 in0.0 mm 0.00 in0.0 mm 0.00 in0.0 mm
07:25 PM 62.1°F16.7°C 32.7°F0.4°C 33% 0.6 mph SW1.0 kmh SW 3.0 mph4.8 kmh 29.91 in1012.9 mb 0.00 in0.0 mm 0.00 in0.0 mm 0.00 in0.0 mm
07:30 PM 62.1°F16.7°C 32.7°F0.4°C 33% 0.5 mph SW0.8 kmh SW 3.0 mph4.8 kmh 29.91 in1012.9 mb 0.00 in0.0 mm 0.00 in0.0 mm 0.00 in0.0 mm
07:35 PM 61.9°F16.6°C 32.5°F0.3°C 33% 0.3 mph SW0.5 kmh SW 3.0 mph4.8 kmh 29.91 in1012.9 mb 0.00 in0.0 mm 0.00 in0.0 mm 0.00 in0.0 mm
07:40 PM 61.7°F16.5°C 32.3°F0.2°C 33% 0.2 mph SW0.3 kmh SW 2.0 mph3.2 kmh 29.91 in1012.9 mb 0.00 in0.0 mm 0.00 in0.0 mm 0.00 in0.0 mm
07:45 PM 61.3°F16.3°C 32.7°F0.4°C 34% Calm Calm 1.0 mph1.6 kmh 29.91 in1012.9 mb 0.00 in0.0 mm 0.00 in0.0 mm 0.00 in0.0 mm
07:50 PM 60.9°F16.1°C 32.3°F0.2°C 34% Calm Calm 1.0 mph1.6 kmh 29.91 in1012.9 mb 0.00 in0.0 mm 0.00 in0.0 mm 0.00 in0.0 mm
07:55 PM 60.4°F15.8°C 32.6°F0.3°C 35% Calm Calm -- 29.91 in1012.9 mb 0.00 in0.0 mm 0.00 in0.0 mm 0.00 in0.0 mm
08:00 PM 59.9°F15.5°C 32.2°F0.1°C 35% Calm Calm 1.0 mph1.6 kmh 29.91 in1012.9 mb 0.00 in0.0 mm 0.00 in0.0 mm 0.00 in0.0 mm
08:05 PM 59.3°F15.2°C 32.4°F0.2°C 36% Calm Calm 1.0 mph1.6 kmh 29.91 in1012.9 mb 0.00 in0.0 mm 0.00 in0.0 mm 0.00 in0.0 mm
08:10 PM 58.8°F14.9°C 32.6°F0.3°C 37% Calm Calm 1.0 mph1.6 kmh 29.91 in1012.9 mb 0.00 in0.0 mm 0.00 in0.0 mm 0.00 in0.0 mm
08:15 PM 58.3°F14.6°C 32.8°F0.4°C 38% Calm Calm 1.0 mph1.6 kmh 29.91 in1012.9 mb 0.00 in0.0 mm 0.00 in0.0 mm 0.00 in0.0 mm
08:20 PM 58.1°F14.5°C 32.6°F0.3°C 38% Calm Calm 1.0 mph1.6 kmh 29.91 in1012.9 mb 0.00 in0.0 mm 0.00 in0.0 mm 0.00 in0.0 mm
08:25 PM 58.2°F14.6°C 33.4°F0.8°C 39% 0.1 mph WSW0.2 kmh WSW 1.0 mph1.6 kmh 29.91 in1012.9 mb 0.00 in0.0 mm 0.00 in0.0 mm 0.00 in0.0 mm
08:30 PM 58.7°F14.8°C 33.8°F1.0°C 39% 0.5 mph SW0.8 kmh SW 5.0 mph8.0 kmh 29.91 in1012.9 mb 0.00 in0.0 mm 0.00 in0.0 mm 0.00 in0.0 mm
08:35 PM 59.1°F15.1°C 34.2°F1.2°C 39% 0.1 mph SE0.2 kmh SE 5.0 mph8.0 kmh 29.91 in1012.9 mb 0.00 in0.0 mm 0.00 in0.0 mm 0.00 in0.0 mm
08:40 PM 59.3°F15.2°C 34.3°F1.3°C 39% 0.1 mph WSW0.2 kmh WSW 1.0 mph1.6 kmh 29.91 in1012.9 mb 0.00 in0.0 mm 0.00 in0.0 mm 0.00 in0.0 mm
08:45 PM 59.4°F15.2°C 34.4°F1.3°C 39% 0.3 mph S0.5 kmh S 2.0 mph3.2 kmh 29.91 in1012.9 mb 0.00 in0.0 mm 0.00 in0.0 mm 0.00 in0.0 mm
08:50 PM 59.7°F15.4°C 34.7°F1.5°C 39% 0.6 mph SSW1.0 kmh SSW 4.0 mph6.4 kmh 29.91 in1012.9 mb 0.00 in0.0 mm 0.00 in0.0 mm 0.00 in0.0 mm
08:55 PM 59.7°F15.4°C 34.7°F1.5°C 39% Calm Calm 4.0 mph6.4 kmh 29.91 in1012.9 mb 0.00 in0.0 mm 0.00 in0.0 mm 0.00 in0.0 mm
09:00 PM 59.5°F15.3°C 34.5°F1.4°C 39% Calm Calm -- 29.91 in1012.9 mb 0.00 in0.0 mm 0.00 in0.0 mm 0.00 in0.0 mm
09:05 PM 59.3°F15.2°C 34.3°F1.3°C 39% Calm Calm -- 29.92 in1013.2 mb 0.00 in0.0 mm 0.00 in0.0 mm 0.00 in0.0 mm
09:10 PM 59.2°F15.1°C 34.9°F1.6°C 40% Calm Calm 1.0 mph1.6 kmh 29.91 in1012.9 mb 0.00 in0.0 mm 0.00 in0.0 mm 0.00 in0.0 mm
09:15 PM 59.3°F15.2°C 35.0°F1.7°C 40% 0.3 mph WSW0.5 kmh WSW 2.0 mph3.2 kmh 29.91 in1012.9 mb 0.00 in0.0 mm 0.00 in0.0 mm 0.00 in0.0 mm
09:20 PM 59.5°F15.3°C 34.5°F1.4°C 39% 0.2 mph SW0.3 kmh SW 2.0 mph3.2 kmh 29.91 in1012.9 mb 0.00 in0.0 mm 0.00 in0.0 mm 0.00 in0.0 mm
09:25 PM 59.5°F15.3°C 34.5°F1.4°C 39% 0.2 mph SW0.3 kmh SW 2.0 mph3.2 kmh 29.91 in1012.9 mb 0.00 in0.0 mm 0.00 in0.0 mm 0.00 in0.0 mm
09:30 PM 59.5°F15.3°C 34.5°F1.4°C 39% 0.1 mph SW0.2 kmh SW 1.0 mph1.6 kmh 29.91 in1012.9 mb 0.00 in0.0 mm 0.00 in0.0 mm 0.00 in0.0 mm
09:35 PM 59.4°F15.2°C 34.4°F1.3°C 39% Calm Calm 1.0 mph1.6 kmh 29.91 in1012.9 mb 0.00 in0.0 mm 0.00 in0.0 mm 0.00 in0.0 mm
09:40 PM 59.4°F15.2°C 34.4°F1.3°C 39% 0.1 mph SW0.2 kmh SW 1.0 mph1.6 kmh 29.91 in1012.9 mb 0.00 in0.0 mm 0.00 in0.0 mm 0.00 in0.0 mm
09:45 PM 59.5°F15.3°C 33.9°F1.1°C 38% 0.3 mph WSW0.5 kmh WSW 2.0 mph3.2 kmh 29.91 in1012.9 mb 0.00 in0.0 mm 0.00 in0.0 mm 0.00 in0.0 mm
09:50 PM 59.5°F15.3°C 33.9°F1.1°C 38% Calm Calm 2.0 mph3.2 kmh 29.91 in1012.9 mb 0.00 in0.0 mm 0.00 in0.0 mm 0.00 in0.0 mm
09:55 PM 59.3°F15.2°C 33.7°F0.9°C 38% Calm Calm 1.0 mph1.6 kmh 29.91 in1012.9 mb 0.00 in0.0 mm 0.00 in0.0 mm 0.00 in0.0 mm
10:00 PM 59.1°F15.1°C 33.5°F0.8°C 38% Calm Calm -- 29.91 in1012.9 mb 0.00 in0.0 mm 0.00 in0.0 mm 0.00 in0.0 mm
10:05 PM 58.9°F14.9°C 34.0°F1.1°C 39% 0.1 mph SSW0.2 kmh SSW 1.0 mph1.6 kmh 29.91 in1012.9 mb 0.00 in0.0 mm 0.00 in0.0 mm 0.00 in0.0 mm
10:10 PM 58.6°F14.8°C 33.7°F0.9°C 39% Calm Calm 1.0 mph1.6 kmh 29.91 in1012.9 mb 0.00 in0.0 mm 0.00 in0.0 mm 0.00 in0.0 mm
10:15 PM 58.3°F14.6°C 33.5°F0.8°C 39% Calm Calm -- 29.92 in1013.2 mb 0.00 in0.0 mm 0.00 in0.0 mm 0.00 in0.0 mm
10:20 PM 57.9°F14.4°C 33.7°F0.9°C 40% Calm Calm -- 29.92 in1013.2 mb 0.00 in0.0 mm 0.00 in0.0 mm 0.00 in0.0 mm
10:25 PM 57.6°F14.2°C 33.5°F0.8°C 40% Calm Calm -- 29.92 in1013.2 mb 0.00 in0.0 mm 0.00 in0.0 mm 0.00 in0.0 mm
10:30 PM 57.1°F13.9°C 33.6°F0.9°C 41% Calm Calm -- 29.92 in1013.2 mb 0.00 in0.0 mm 0.00 in0.0 mm 0.00 in0.0 mm
10:35 PM 56.8°F13.8°C 34.0°F1.1°C 42% Calm Calm -- 29.92 in1013.2 mb 0.00 in0.0 mm 0.00 in0.0 mm 0.00 in0.0 mm
10:40 PM 56.8°F13.8°C 34.5°F1.4°C 43% Calm Calm -- 29.92 in1013.2 mb 0.00 in0.0 mm 0.00 in0.0 mm 0.00 in0.0 mm
10:45 PM 56.7°F13.7°C 33.9°F1.1°C 42% Calm Calm -- 29.92 in1013.2 mb 0.00 in0.0 mm 0.00 in0.0 mm 0.00 in0.0 mm
10:50 PM 56.3°F13.5°C 34.1°F1.2°C 43% Calm Calm -- 29.93 in1013.5 mb 0.00 in0.0 mm 0.00 in0.0 mm 0.00 in0.0 mm
10:55 PM 55.8°F13.2°C 33.6°F0.9°C 43% Calm Calm -- 29.93 in1013.5 mb 0.00 in0.0 mm 0.00 in0.0 mm 0.00 in0.0 mm
11:00 PM 55.4°F13.0°C 33.9°F1.1°C 44% Calm Calm -- 29.93 in1013.5 mb 0.00 in0.0 mm 0.00 in0.0 mm 0.00 in0.0 mm
11:05 PM 55.1°F12.8°C 33.6°F0.9°C 44% Calm Calm -- 29.92 in1013.2 mb 0.00 in0.0 mm 0.00 in0.0 mm 0.00 in0.0 mm
11:10 PM 54.7°F12.6°C 33.8°F1.0°C 45% Calm Calm -- 29.92 in1013.2 mb 0.00 in0.0 mm 0.00 in0.0 mm 0.00 in0.0 mm
11:15 PM 54.5°F12.5°C 33.6°F0.9°C 45% Calm Calm -- 29.92 in1013.2 mb 0.00 in0.0 mm 0.00 in0.0 mm 0.00 in0.0 mm
11:20 PM 54.4°F12.4°C 33.5°F0.8°C 45% Calm Calm -- 29.92 in1013.2 mb 0.00 in0.0 mm 0.00 in0.0 mm 0.00 in0.0 mm
11:25 PM 54.2°F12.3°C 33.9°F1.1°C 46% Calm Calm -- 29.92 in1013.2 mb 0.00 in0.0 mm 0.00 in0.0 mm 0.00 in0.0 mm
11:30 PM 54.1°F12.3°C 33.2°F0.7°C 45% Calm Calm -- 29.92 in1013.2 mb 0.00 in0.0 mm 0.00 in0.0 mm 0.00 in0.0 mm
11:35 PM 53.9°F12.2°C 33.6°F0.9°C 46% Calm Calm -- 29.92 in1013.2 mb 0.00 in0.0 mm 0.00 in0.0 mm 0.00 in0.0 mm
11:40 PM 53.8°F12.1°C 33.5°F0.8°C 46% Calm Calm -- 29.92 in1013.2 mb 0.00 in0.0 mm 0.00 in0.0 mm 0.00 in0.0 mm
11:45 PM 53.7°F12.1°C 33.4°F0.8°C 46% Calm Calm -- 29.92 in1013.2 mb 0.00 in0.0 mm 0.00 in0.0 mm 0.00 in0.0 mm
11:50 PM 53.5°F11.9°C 33.2°F0.7°C 46% Calm Calm -- 29.92 in1013.2 mb 0.00 in0.0 mm 0.00 in0.0 mm 0.00 in0.0 mm
11:55 PM 53.2°F11.8°C 33.5°F0.8°C 47% Calm Calm -- 29.92 in1013.2 mb 0.00 in0.0 mm 0.00 in0.0 mm 0.00 in0.0 mm